sensor_id;sensor_type;location;lat;lon;timestamp;temperature;humidity
28863;DHT22;15994;51.796;13.006;2023-03-03T00:01:38;0.10;99.90
28863;DHT22;15994;51.796;13.006;2023-03-03T00:04:06;0.20;99.90
28863;DHT22;15994;51.796;13.006;2023-03-03T00:06:32;0.30;99.90
28863;DHT22;15994;51.796;13.006;2023-03-03T00:08:59;0.40;99.90
28863;DHT22;15994;51.796;13.006;2023-03-03T00:11:25;0.20;99.90
28863;DHT22;15994;51.796;13.006;2023-03-03T00:13:54;0.20;99.90
28863;DHT22;15994;51.796;13.006;2023-03-03T00:16:34;0.30;99.90
28863;DHT22;15994;51.796;13.006;2023-03-03T00:19:01;0.30;99.90
28863;DHT22;15994;51.796;13.006;2023-03-03T00:21:32;0.30;99.90
28863;DHT22;15994;51.796;13.006;2023-03-03T00:24:18;0.20;99.90
28863;DHT22;15994;51.796;13.006;2023-03-03T00:26:53;0.20;99.90
28863;DHT22;15994;51.796;13.006;2023-03-03T00:29:35;0.30;99.90
28863;DHT22;15994;51.796;13.006;2023-03-03T00:34:41;0.20;99.90
28863;DHT22;15994;51.796;13.006;2023-03-03T00:37:22;0.20;99.90
28863;DHT22;15994;51.796;13.006;2023-03-03T00:39:51;0.30;99.90
28863;DHT22;15994;51.796;13.006;2023-03-03T00:42:18;0.20;99.90
28863;DHT22;15994;51.796;13.006;2023-03-03T00:44:55;0.20;99.90
28863;DHT22;15994;51.796;13.006;2023-03-03T00:47:28;0.20;99.90
28863;DHT22;15994;51.796;13.006;2023-03-03T00:50:31;0.00;99.90
28863;DHT22;15994;51.796;13.006;2023-03-03T00:53:23;0.20;99.90
28863;DHT22;15994;51.796;13.006;2023-03-03T00:55:49;0.00;99.90
28863;DHT22;15994;51.796;13.006;2023-03-03T00:58:16;-0.10;99.90
28863;DHT22;15994;51.796;13.006;2023-03-03T01:00:47;0.00;99.90
28863;DHT22;15994;51.796;13.006;2023-03-03T01:03:17;0.00;99.90
28863;DHT22;15994;51.796;13.006;2023-03-03T01:05:44;-0.20;99.90
28863;DHT22;15994;51.796;13.006;2023-03-03T01:08:11;-0.30;99.90
28863;DHT22;15994;51.796;13.006;2023-03-03T01:10:57;-0.30;99.90
28863;DHT22;15994;51.796;13.006;2023-03-03T01:13:28;-0.20;99.90
28863;DHT22;15994;51.796;13.006;2023-03-03T01:15:55;-0.30;99.90
28863;DHT22;15994;51.796;13.006;2023-03-03T01:18:22;-0.10;99.90
28863;DHT22;15994;51.796;13.006;2023-03-03T01:20:48;-0.10;99.90
28863;DHT22;15994;51.796;13.006;2023-03-03T01:23:15;-0.10;99.90
28863;DHT22;15994;51.796;13.006;2023-03-03T01:25:42;0.00;99.90
28863;DHT22;15994;51.796;13.006;2023-03-03T01:28:08;0.00;99.90
28863;DHT22;15994;51.796;13.006;2023-03-03T01:30:35;-0.10;99.90
28863;DHT22;15994;51.796;13.006;2023-03-03T01:33:02;0.00;99.90
28863;DHT22;15994;51.796;13.006;2023-03-03T01:35:29;-0.10;99.90
28863;DHT22;15994;51.796;13.006;2023-03-03T01:37:56;-0.30;99.90
28863;DHT22;15994;51.796;13.006;2023-03-03T01:40:25;-0.30;99.90
28863;DHT22;15994;51.796;13.006;2023-03-03T01:42:52;-0.40;99.90
28863;DHT22;15994;51.796;13.006;2023-03-03T01:45:26;-0.30;99.90
28863;DHT22;15994;51.796;13.006;2023-03-03T01:53:42;-0.10;99.90
28863;DHT22;15994;51.796;13.006;2023-03-03T01:56:09;-0.30;99.90
28863;DHT22;15994;51.796;13.006;2023-03-03T01:58:40;-0.30;99.90
28863;DHT22;15994;51.796;13.006;2023-03-03T02:01:16;-0.30;99.90
28863;DHT22;15994;51.796;13.006;2023-03-03T02:03:44;-0.30;99.90
28863;DHT22;15994;51.796;13.006;2023-03-03T02:06:14;-0.30;99.90
28863;DHT22;15994;51.796;13.006;2023-03-03T02:08:59;-0.20;99.90
28863;DHT22;15994;51.796;13.006;2023-03-03T02:11:29;-0.10;99.90
28863;DHT22;15994;51.796;13.006;2023-03-03T02:13:56;-0.20;99.90
28863;DHT22;15994;51.796;13.006;2023-03-03T02:16:23;-0.20;99.90
28863;DHT22;15994;51.796;13.006;2023-03-03T02:18:50;-0.10;99.90
28863;DHT22;15994;51.796;13.006;2023-03-03T02:21:23;-0.10;99.90
28863;DHT22;15994;51.796;13.006;2023-03-03T02:24:02;-0.10;99.90
28863;DHT22;15994;51.796;13.006;2023-03-03T02:26:34;-0.10;99.90
28863;DHT22;15994;51.796;13.006;2023-03-03T02:29:02;-0.10;99.90
28863;DHT22;15994;51.796;13.006;2023-03-03T02:31:30;0.00;99.90
28863;DHT22;15994;51.796;13.006;2023-03-03T02:33:57;-0.10;99.90
28863;DHT22;15994;51.796;13.006;2023-03-03T02:36:29;-0.20;99.90
28863;DHT22;15994;51.796;13.006;2023-03-03T02:44:25;-0.10;99.90
28863;DHT22;15994;51.796;13.006;2023-03-03T02:46:54;-0.10;99.90
28863;DHT22;15994;51.796;13.006;2023-03-03T02:49:27;-0.10;99.90
28863;DHT22;15994;51.796;13.006;2023-03-03T02:51:55;-0.10;99.90
28863;DHT22;15994;51.796;13.006;2023-03-03T02:54:23;0.00;99.90
28863;DHT22;15994;51.796;13.006;2023-03-03T02:56:50;0.10;99.90
28863;DHT22;15994;51.796;13.006;2023-03-03T02:59:17;0.10;99.90
28863;DHT22;15994;51.796;13.006;2023-03-03T03:01:45;0.10;99.90
28863;DHT22;15994;51.796;13.006;2023-03-03T03:04:14;0.00;99.90
28863;DHT22;15994;51.796;13.006;2023-03-03T03:06:42;0.00;99.90
28863;DHT22;15994;51.796;13.006;2023-03-03T03:09:09;0.20;99.90
28863;DHT22;15994;51.796;13.006;2023-03-03T03:11:37;0.10;99.90
28863;DHT22;15994;51.796;13.006;2023-03-03T03:14:06;0.00;99.90
28863;DHT22;15994;51.796;13.006;2023-03-03T03:16:33;0.00;99.90
28863;DHT22;15994;51.796;13.006;2023-03-03T03:19:00;0.00;99.90
28863;DHT22;15994;51.796;13.006;2023-03-03T03:21:27;0.00;99.90
28863;DHT22;15994;51.796;13.006;2023-03-03T03:23:54;0.00;99.90
28863;DHT22;15994;51.796;13.006;2023-03-03T03:26:20;-0.10;99.90
28863;DHT22;15994;51.796;13.006;2023-03-03T03:28:48;-0.10;99.90
28863;DHT22;15994;51.796;13.006;2023-03-03T03:31:15;-0.20;99.90
28863;DHT22;15994;51.796;13.006;2023-03-03T03:33:42;-0.10;99.90
28863;DHT22;15994;51.796;13.006;2023-03-03T03:36:09;0.00;99.90
28863;DHT22;15994;51.796;13.006;2023-03-03T03:38:36;0.10;99.90
28863;DHT22;15994;51.796;13.006;2023-03-03T03:41:04;0.20;99.90
28863;DHT22;15994;51.796;13.006;2023-03-03T03:43:31;0.20;99.90
28863;DHT22;15994;51.796;13.006;2023-03-03T03:45:57;0.20;99.90
28863;DHT22;15994;51.796;13.006;2023-03-03T03:48:24;0.10;99.90
28863;DHT22;15994;51.796;13.006;2023-03-03T03:50:51;0.20;99.90
28863;DHT22;15994;51.796;13.006;2023-03-03T03:53:18;0.20;99.90
28863;DHT22;15994;51.796;13.006;2023-03-03T03:55:45;0.20;99.90
28863;DHT22;15994;51.796;13.006;2023-03-03T03:58:16;0.20;99.90
28863;DHT22;15994;51.796;13.006;2023-03-03T04:00:43;0.20;99.90
28863;DHT22;15994;51.796;13.006;2023-03-03T04:03:11;0.30;99.90
28863;DHT22;15994;51.796;13.006;2023-03-03T04:05:38;0.20;99.90
28863;DHT22;15994;51.796;13.006;2023-03-03T04:08:05;0.00;99.90
28863;DHT22;15994;51.796;13.006;2023-03-03T04:10:32;-0.10;99.90
28863;DHT22;15994;51.796;13.006;2023-03-03T04:12:58;-0.10;99.90
28863;DHT22;15994;51.796;13.006;2023-03-03T04:15:25;-0.10;99.90
28863;DHT22;15994;51.796;13.006;2023-03-03T04:17:51;-0.20;99.90
28863;DHT22;15994;51.796;13.006;2023-03-03T04:20:18;-0.10;99.90
28863;DHT22;15994;51.796;13.006;2023-03-03T04:22:44;-0.20;99.90
28863;DHT22;15994;51.796;13.006;2023-03-03T04:25:16;0.00;99.90
28863;DHT22;15994;51.796;13.006;2023-03-03T04:27:43;0.00;99.90
28863;DHT22;15994;51.796;13.006;2023-03-03T04:30:11;-0.10;99.90
28863;DHT22;15994;51.796;13.006;2023-03-03T04:32:38;0.00;99.90
28863;DHT22;15994;51.796;13.006;2023-03-03T04:35:05;-0.10;99.90
28863;DHT22;15994;51.796;13.006;2023-03-03T04:37:32;-0.10;99.90
28863;DHT22;15994;51.796;13.006;2023-03-03T04:39:58;-0.20;99.90
28863;DHT22;15994;51.796;13.006;2023-03-03T04:42:25;-0.30;99.90
28863;DHT22;15994;51.796;13.006;2023-03-03T04:44:53;-0.30;99.90
28863;DHT22;15994;51.796;13.006;2023-03-03T04:47:19;-0.40;99.90
28863;DHT22;15994;51.796;13.006;2023-03-03T04:49:46;-0.30;99.90
28863;DHT22;15994;51.796;13.006;2023-03-03T04:52:13;-0.40;99.90
28863;DHT22;15994;51.796;13.006;2023-03-03T04:54:39;-0.30;99.90
28863;DHT22;15994;51.796;13.006;2023-03-03T04:57:06;-0.40;99.90
28863;DHT22;15994;51.796;13.006;2023-03-03T04:59:34;-0.40;99.90
28863;DHT22;15994;51.796;13.006;2023-03-03T05:02:01;-0.30;99.90
28863;DHT22;15994;51.796;13.006;2023-03-03T05:04:28;-0.30;99.90
28863;DHT22;15994;51.796;13.006;2023-03-03T05:06:55;-0.20;99.90
28863;DHT22;15994;51.796;13.006;2023-03-03T05:09:22;-0.20;99.90
28863;DHT22;15994;51.796;13.006;2023-03-03T05:11:49;-0.20;99.90
28863;DHT22;15994;51.796;13.006;2023-03-03T05:14:15;-0.20;99.90
28863;DHT22;15994;51.796;13.006;2023-03-03T05:16:42;-0.20;99.90
28863;DHT22;15994;51.796;13.006;2023-03-03T05:19:09;-0.20;99.90
28863;DHT22;15994;51.796;13.006;2023-03-03T05:21:36;-0.10;99.90
28863;DHT22;15994;51.796;13.006;2023-03-03T05:24:10;-0.20;99.90
28863;DHT22;15994;51.796;13.006;2023-03-03T05:26:38;-0.20;99.90
28863;DHT22;15994;51.796;13.006;2023-03-03T05:29:06;-0.20;99.90
28863;DHT22;15994;51.796;13.006;2023-03-03T05:31:33;-0.40;99.90
28863;DHT22;15994;51.796;13.006;2023-03-03T05:34:00;-0.30;99.90
28863;DHT22;15994;51.796;13.006;2023-03-03T05:36:27;-0.40;99.90
28863;DHT22;15994;51.796;13.006;2023-03-03T05:38:53;-0.30;99.90
28863;DHT22;15994;51.796;13.006;2023-03-03T05:41:20;-0.30;99.90
28863;DHT22;15994;51.796;13.006;2023-03-03T05:43:47;-0.30;99.90
28863;DHT22;15994;51.796;13.006;2023-03-03T05:46:13;-0.20;99.90
28863;DHT22;15994;51.796;13.006;2023-03-03T05:48:40;-0.30;99.90
28863;DHT22;15994;51.796;13.006;2023-03-03T05:51:07;-0.20;99.90
28863;DHT22;15994;51.796;13.006;2023-03-03T05:53:33;-0.20;99.90
28863;DHT22;15994;51.796;13.006;2023-03-03T05:56:00;0.00;99.90
28863;DHT22;15994;51.796;13.006;2023-03-03T05:58:27;0.00;99.90
28863;DHT22;15994;51.796;13.006;2023-03-03T06:00:54;-0.10;99.90
28863;DHT22;15994;51.796;13.006;2023-03-03T06:03:21;-0.10;99.90
28863;DHT22;15994;51.796;13.006;2023-03-03T06:05:47;-0.20;99.90
28863;DHT22;15994;51.796;13.006;2023-03-03T06:08:14;-0.10;99.90
28863;DHT22;15994;51.796;13.006;2023-03-03T06:10:40;0.00;99.90
28863;DHT22;15994;51.796;13.006;2023-03-03T06:13:07;-0.10;99.90
28863;DHT22;15994;51.796;13.006;2023-03-03T06:15:33;-0.10;99.90
28863;DHT22;15994;51.796;13.006;2023-03-03T06:18:00;0.00;99.90
28863;DHT22;15994;51.796;13.006;2023-03-03T06:20:27;0.10;99.90
28863;DHT22;15994;51.796;13.006;2023-03-03T06:22:53;0.10;99.90
28863;DHT22;15994;51.796;13.006;2023-03-03T06:25:20;0.10;99.90
28863;DHT22;15994;51.796;13.006;2023-03-03T06:27:46;0.00;99.90
28863;DHT22;15994;51.796;13.006;2023-03-03T06:30:13;0.00;99.90
28863;DHT22;15994;51.796;13.006;2023-03-03T06:32:40;0.00;99.90
28863;DHT22;15994;51.796;13.006;2023-03-03T06:35:07;0.10;99.90
28863;DHT22;15994;51.796;13.006;2023-03-03T06:37:33;0.10;99.90
28863;DHT22;15994;51.796;13.006;2023-03-03T06:40:00;0.00;99.90
28863;DHT22;15994;51.796;13.006;2023-03-03T06:42:26;0.20;99.90
28863;DHT22;15994;51.796;13.006;2023-03-03T06:44:53;0.20;99.90
28863;DHT22;15994;51.796;13.006;2023-03-03T06:47:19;0.40;99.90
28863;DHT22;15994;51.796;13.006;2023-03-03T06:49:46;0.30;99.90
28863;DHT22;15994;51.796;13.006;2023-03-03T06:52:24;0.30;99.90
28863;DHT22;15994;51.796;13.006;2023-03-03T06:54:54;0.30;99.90
28863;DHT22;15994;51.796;13.006;2023-03-03T06:57:27;0.20;99.90
28863;DHT22;15994;51.796;13.006;2023-03-03T06:59:57;0.30;99.90
28863;DHT22;15994;51.796;13.006;2023-03-03T07:02:25;0.30;99.90
28863;DHT22;15994;51.796;13.006;2023-03-03T07:04:55;0.40;99.90
28863;DHT22;15994;51.796;13.006;2023-03-03T07:07:23;0.50;99.90
28863;DHT22;15994;51.796;13.006;2023-03-03T07:09:53;0.50;99.90
28863;DHT22;15994;51.796;13.006;2023-03-03T07:12:22;0.50;99.90
28863;DHT22;15994;51.796;13.006;2023-03-03T07:15:15;0.50;99.90
28863;DHT22;15994;51.796;13.006;2023-03-03T07:17:44;0.50;99.90
28863;DHT22;15994;51.796;13.006;2023-03-03T07:20:21;0.60;99.90
28863;DHT22;15994;51.796;13.006;2023-03-03T07:22:48;0.60;99.90
28863;DHT22;15994;51.796;13.006;2023-03-03T07:25:29;0.60;99.90
28863;DHT22;15994;51.796;13.006;2023-03-03T07:28:18;0.50;99.90
28863;DHT22;15994;51.796;13.006;2023-03-03T07:30:46;0.60;99.90
28863;DHT22;15994;51.796;13.006;2023-03-03T07:33:30;0.40;99.90
28863;DHT22;15994;51.796;13.006;2023-03-03T07:36:01;0.60;99.90
28863;DHT22;15994;51.796;13.006;2023-03-03T07:38:52;0.60;99.90
28863;DHT22;15994;51.796;13.006;2023-03-03T07:41:19;0.60;99.90
28863;DHT22;15994;51.796;13.006;2023-03-03T07:43:52;0.50;99.90
28863;DHT22;15994;51.796;13.006;2023-03-03T07:46:29;0.60;99.90
28863;DHT22;15994;51.796;13.006;2023-03-03T07:48:59;0.60;99.90
28863;DHT22;15994;51.796;13.006;2023-03-03T07:51:31;0.70;99.90
28863;DHT22;15994;51.796;13.006;2023-03-03T07:54:23;0.70;99.90
28863;DHT22;15994;51.796;13.006;2023-03-03T07:57:01;0.70;99.90
28863;DHT22;15994;51.796;13.006;2023-03-03T07:59:34;0.70;99.90
28863;DHT22;15994;51.796;13.006;2023-03-03T08:02:08;0.70;99.90
28863;DHT22;15994;51.796;13.006;2023-03-03T08:04:43;0.70;99.90
28863;DHT22;15994;51.796;13.006;2023-03-03T08:07:19;0.60;99.90
28863;DHT22;15994;51.796;13.006;2023-03-03T08:10:00;0.60;99.90
28863;DHT22;15994;51.796;13.006;2023-03-03T08:12:36;0.50;99.90
28863;DHT22;15994;51.796;13.006;2023-03-03T08:15:16;0.60;99.90
28863;DHT22;15994;51.796;13.006;2023-03-03T08:17:43;0.60;99.90
28863;DHT22;15994;51.796;13.006;2023-03-03T08:23:00;0.40;99.90
28863;DHT22;15994;51.796;13.006;2023-03-03T08:25:26;0.50;99.90
28863;DHT22;15994;51.796;13.006;2023-03-03T08:27:53;0.60;99.90
28863;DHT22;15994;51.796;13.006;2023-03-03T08:30:20;0.70;99.90
28863;DHT22;15994;51.796;13.006;2023-03-03T08:32:46;0.80;99.90
28863;DHT22;15994;51.796;13.006;2023-03-03T08:35:13;0.70;99.90
28863;DHT22;15994;51.796;13.006;2023-03-03T08:37:39;0.70;99.90
28863;DHT22;15994;51.796;13.006;2023-03-03T08:40:07;0.80;99.90
28863;DHT22;15994;51.796;13.006;2023-03-03T08:42:33;0.70;99.90
28863;DHT22;15994;51.796;13.006;2023-03-03T08:45:00;0.80;99.90
28863;DHT22;15994;51.796;13.006;2023-03-03T08:47:26;0.80;99.90
28863;DHT22;15994;51.796;13.006;2023-03-03T08:49:53;0.80;99.90
28863;DHT22;15994;51.796;13.006;2023-03-03T08:52:20;0.70;99.90
28863;DHT22;15994;51.796;13.006;2023-03-03T08:54:46;0.90;99.90
28863;DHT22;15994;51.796;13.006;2023-03-03T08:57:13;1.00;99.90
28863;DHT22;15994;51.796;13.006;2023-03-03T08:59:39;1.20;99.90
28863;DHT22;15994;51.796;13.006;2023-03-03T09:02:06;1.20;99.90
28863;DHT22;15994;51.796;13.006;2023-03-03T09:04:33;1.20;99.90
28863;DHT22;15994;51.796;13.006;2023-03-03T09:07:00;1.30;99.90
28863;DHT22;15994;51.796;13.006;2023-03-03T09:09:27;1.10;99.90
28863;DHT22;15994;51.796;13.006;2023-03-03T09:11:57;1.20;99.90
28863;DHT22;15994;51.796;13.006;2023-03-03T09:14:28;1.10;99.90
28863;DHT22;15994;51.796;13.006;2023-03-03T09:16:55;1.20;99.90
28863;DHT22;15994;51.796;13.006;2023-03-03T09:19:30;1.10;99.90
28863;DHT22;15994;51.796;13.006;2023-03-03T09:24:42;1.20;99.90
28863;DHT22;15994;51.796;13.006;2023-03-03T09:27:30;1.30;99.90
28863;DHT22;15994;51.796;13.006;2023-03-03T09:30:02;1.50;99.90
28863;DHT22;15994;51.796;13.006;2023-03-03T09:32:37;1.60;99.90
28863;DHT22;15994;51.796;13.006;2023-03-03T09:35:40;1.50;99.90
28863;DHT22;15994;51.796;13.006;2023-03-03T09:38:24;1.50;99.90
28863;DHT22;15994;51.796;13.006;2023-03-03T09:43:49;1.50;99.90
28863;DHT22;15994;51.796;13.006;2023-03-03T10:01:05;1.90;99.90
28863;DHT22;15994;51.796;13.006;2023-03-03T10:03:56;1.80;99.90
28863;DHT22;15994;51.796;13.006;2023-03-03T10:06:55;1.80;99.90
28863;DHT22;15994;51.796;13.006;2023-03-03T10:12:50;1.80;99.90
28863;DHT22;15994;51.796;13.006;2023-03-03T10:18:23;1.70;99.90
28863;DHT22;15994;51.796;13.006;2023-03-03T10:21:16;1.50;99.90
28863;DHT22;15994;51.796;13.006;2023-03-03T10:24:09;1.70;99.90
28863;DHT22;15994;51.796;13.006;2023-03-03T10:27:26;1.90;99.90
28863;DHT22;15994;51.796;13.006;2023-03-03T10:30:06;1.80;99.90
28863;DHT22;15994;51.796;13.006;2023-03-03T10:32:57;1.90;99.90
28863;DHT22;15994;51.796;13.006;2023-03-03T10:41:41;2.10;99.90
28863;DHT22;15994;51.796;13.006;2023-03-03T10:44:38;2.00;99.90
28863;DHT22;15994;51.796;13.006;2023-03-03T10:47:27;2.00;99.90
28863;DHT22;15994;51.796;13.006;2023-03-03T10:50:16;2.20;99.90
28863;DHT22;15994;51.796;13.006;2023-03-03T10:53:21;2.40;99.90
28863;DHT22;15994;51.796;13.006;2023-03-03T11:04:38;2.70;99.90
28863;DHT22;15994;51.796;13.006;2023-03-03T11:15:49;2.50;99.90
28863;DHT22;15994;51.796;13.006;2023-03-03T11:26:59;2.90;99.90
28863;DHT22;15994;51.796;13.006;2023-03-03T11:35:20;3.10;99.90
28863;DHT22;15994;51.796;13.006;2023-03-03T11:41:03;3.00;99.90
28863;DHT22;15994;51.796;13.006;2023-03-03T11:43:41;3.00;99.90
28863;DHT22;15994;51.796;13.006;2023-03-03T11:46:13;2.80;99.90
28863;DHT22;15994;51.796;13.006;2023-03-03T11:48:51;2.90;99.90
28863;DHT22;15994;51.796;13.006;2023-03-03T11:54:33;3.00;99.90
28863;DHT22;15994;51.796;13.006;2023-03-03T12:03:10;3.10;99.90
28863;DHT22;15994;51.796;13.006;2023-03-03T12:05:56;3.10;99.90
28863;DHT22;15994;51.796;13.006;2023-03-03T12:09:02;3.20;99.90
28863;DHT22;15994;51.796;13.006;2023-03-03T12:17:14;3.10;99.90
28863;DHT22;15994;51.796;13.006;2023-03-03T12:20:01;3.20;99.90
28863;DHT22;15994;51.796;13.006;2023-03-03T12:22:34;3.20;99.90
28863;DHT22;15994;51.796;13.006;2023-03-03T12:27:47;3.20;99.90
28863;DHT22;15994;51.796;13.006;2023-03-03T12:30:30;3.30;99.90
28863;DHT22;15994;51.796;13.006;2023-03-03T12:33:16;3.30;99.90
28863;DHT22;15994;51.796;13.006;2023-03-03T12:36:04;3.20;99.90
28863;DHT22;15994;51.796;13.006;2023-03-03T12:45:03;3.30;99.90
28863;DHT22;15994;51.796;13.006;2023-03-03T12:47:52;3.50;99.90
28863;DHT22;15994;51.796;13.006;2023-03-03T12:56:07;3.70;99.90
28863;DHT22;15994;51.796;13.006;2023-03-03T13:04:37;3.70;99.90
28863;DHT22;15994;51.796;13.006;2023-03-03T13:13:01;4.00;99.90
28863;DHT22;15994;51.796;13.006;2023-03-03T13:18:35;4.10;99.90
28863;DHT22;15994;51.796;13.006;2023-03-03T13:23:49;3.90;99.90
28863;DHT22;15994;51.796;13.006;2023-03-03T13:26:25;3.80;99.90
28863;DHT22;15994;51.796;13.006;2023-03-03T13:31:54;3.90;99.90
28863;DHT22;15994;51.796;13.006;2023-03-03T13:34:48;4.00;99.90
28863;DHT22;15994;51.796;13.006;2023-03-03T13:37:22;4.00;99.90
28863;DHT22;15994;51.796;13.006;2023-03-03T13:40:24;4.00;99.90
28863;DHT22;15994;51.796;13.006;2023-03-03T13:42:59;4.10;99.90
28863;DHT22;15994;51.796;13.006;2023-03-03T13:45:53;4.20;99.90
28863;DHT22;15994;51.796;13.006;2023-03-03T13:48:44;4.20;99.90
28863;DHT22;15994;51.796;13.006;2023-03-03T14:00:04;4.40;99.90
28863;DHT22;15994;51.796;13.006;2023-03-03T14:02:56;4.30;99.90
28863;DHT22;15994;51.796;13.006;2023-03-03T14:06:04;4.40;99.90
28863;DHT22;15994;51.796;13.006;2023-03-03T14:08:51;4.20;99.90
28863;DHT22;15994;51.796;13.006;2023-03-03T14:11:28;4.30;99.90
28863;DHT22;15994;51.796;13.006;2023-03-03T14:14:04;4.20;99.90
28863;DHT22;15994;51.796;13.006;2023-03-03T14:17:04;4.10;99.90
28863;DHT22;15994;51.796;13.006;2023-03-03T14:23:13;4.20;99.90
28863;DHT22;15994;51.796;13.006;2023-03-03T14:26:09;4.30;99.90
28863;DHT22;15994;51.796;13.006;2023-03-03T14:28:47;4.40;99.90
28863;DHT22;15994;51.796;13.006;2023-03-03T14:31:28;4.50;99.90
28863;DHT22;15994;51.796;13.006;2023-03-03T14:36:44;4.60;99.90
28863;DHT22;15994;51.796;13.006;2023-03-03T14:39:31;4.60;99.90
28863;DHT22;15994;51.796;13.006;2023-03-03T14:41:58;4.50;99.90
28863;DHT22;15994;51.796;13.006;2023-03-03T14:44:51;4.40;99.90
28863;DHT22;15994;51.796;13.006;2023-03-03T14:47:26;4.40;99.90
28863;DHT22;15994;51.796;13.006;2023-03-03T14:49:54;4.40;99.90
28863;DHT22;15994;51.796;13.006;2023-03-03T14:52:26;4.50;99.90
28863;DHT22;15994;51.796;13.006;2023-03-03T14:54:56;4.50;99.90
28863;DHT22;15994;51.796;13.006;2023-03-03T14:57:39;4.60;99.90
28863;DHT22;15994;51.796;13.006;2023-03-03T15:02:39;4.50;99.90
28863;DHT22;15994;51.796;13.006;2023-03-03T15:05:22;4.40;99.90
28863;DHT22;15994;51.796;13.006;2023-03-03T15:07:53;4.50;99.90
28863;DHT22;15994;51.796;13.006;2023-03-03T15:10:33;4.40;99.90
28863;DHT22;15994;51.796;13.006;2023-03-03T15:16:10;4.60;99.90
28863;DHT22;15994;51.796;13.006;2023-03-03T15:21:24;4.50;99.90
28863;DHT22;15994;51.796;13.006;2023-03-03T15:29:24;4.50;99.90
28863;DHT22;15994;51.796;13.006;2023-03-03T15:32:14;4.60;99.90
28863;DHT22;15994;51.796;13.006;2023-03-03T15:37:52;4.60;99.90
28863;DHT22;15994;51.796;13.006;2023-03-03T15:40:39;4.60;99.90
28863;DHT22;15994;51.796;13.006;2023-03-03T15:43:24;4.60;99.90
28863;DHT22;15994;51.796;13.006;2023-03-03T15:48:45;4.40;99.90
28863;DHT22;15994;51.796;13.006;2023-03-03T15:56:36;4.40;99.90
28863;DHT22;15994;51.796;13.006;2023-03-03T15:59:19;4.40;99.90
28863;DHT22;15994;51.796;13.006;2023-03-03T16:02:27;4.40;99.90
28863;DHT22;15994;51.796;13.006;2023-03-03T16:05:25;4.30;99.90
28863;DHT22;15994;51.796;13.006;2023-03-03T16:08:00;4.30;99.90
28863;DHT22;15994;51.796;13.006;2023-03-03T16:11:11;4.30;99.90
28863;DHT22;15994;51.796;13.006;2023-03-03T16:19:41;4.20;99.90
28863;DHT22;15994;51.796;13.006;2023-03-03T16:27:55;4.10;99.90
28863;DHT22;15994;51.796;13.006;2023-03-03T16:30:56;4.10;99.90
28863;DHT22;15994;51.796;13.006;2023-03-03T16:33:37;4.10;99.90
28863;DHT22;15994;51.796;13.006;2023-03-03T16:38:50;3.90;99.90
28863;DHT22;15994;51.796;13.006;2023-03-03T16:41:22;4.00;99.90
28863;DHT22;15994;51.796;13.006;2023-03-03T16:44:03;3.90;99.90
28863;DHT22;15994;51.796;13.006;2023-03-03T16:46:37;4.00;99.90
28863;DHT22;15994;51.796;13.006;2023-03-03T16:49:07;4.00;99.90
28863;DHT22;15994;51.796;13.006;2023-03-03T16:55:02;3.80;99.90
28863;DHT22;15994;51.796;13.006;2023-03-03T17:00:20;3.70;99.90
28863;DHT22;15994;51.796;13.006;2023-03-03T17:08:09;3.70;99.90
28863;DHT22;15994;51.796;13.006;2023-03-03T17:10:59;3.60;99.90
28863;DHT22;15994;51.796;13.006;2023-03-03T17:16:29;3.60;99.90
28863;DHT22;15994;51.796;13.006;2023-03-03T17:27:55;3.60;99.90
28863;DHT22;15994;51.796;13.006;2023-03-03T17:30:29;3.60;99.90
28863;DHT22;15994;51.796;13.006;2023-03-03T17:36:19;3.60;99.90
28863;DHT22;15994;51.796;13.006;2023-03-03T17:38:58;3.60;99.90
28863;DHT22;15994;51.796;13.006;2023-03-03T17:41:50;3.60;99.90
28863;DHT22;15994;51.796;13.006;2023-03-03T17:44:40;3.60;99.90
28863;DHT22;15994;51.796;13.006;2023-03-03T17:47:16;3.60;99.90
28863;DHT22;15994;51.796;13.006;2023-03-03T17:49:54;3.50;99.90
28863;DHT22;15994;51.796;13.006;2023-03-03T17:58:16;3.50;99.90
28863;DHT22;15994;51.796;13.006;2023-03-03T18:12:03;3.50;99.90
28863;DHT22;15994;51.796;13.006;2023-03-03T18:15:09;3.50;99.90
28863;DHT22;15994;51.796;13.006;2023-03-03T18:18:00;3.50;99.90
28863;DHT22;15994;51.796;13.006;2023-03-03T18:22:54;3.50;99.90
28863;DHT22;15994;51.796;13.006;2023-03-03T18:25:23;3.50;99.90
28863;DHT22;15994;51.796;13.006;2023-03-03T18:30:50;3.40;99.90
28863;DHT22;15994;51.796;13.006;2023-03-03T18:33:12;3.40;99.90
28863;DHT22;15994;51.796;13.006;2023-03-03T18:35:41;3.40;99.90
28863;DHT22;15994;51.796;13.006;2023-03-03T18:49:11;3.30;99.90
28863;DHT22;15994;51.796;13.006;2023-03-03T19:04:51;3.10;99.90
28863;DHT22;15994;51.796;13.006;2023-03-03T19:09:56;3.00;99.90
28863;DHT22;15994;51.796;13.006;2023-03-03T19:12:52;2.90;99.90
28863;DHT22;15994;51.796;13.006;2023-03-03T19:18:02;2.80;99.90
28863;DHT22;15994;51.796;13.006;2023-03-03T19:20:52;2.80;99.90
28863;DHT22;15994;51.796;13.006;2023-03-03T19:23:57;2.80;99.90
28863;DHT22;15994;51.796;13.006;2023-03-03T19:29:20;2.90;99.90
28863;DHT22;15994;51.796;13.006;2023-03-03T19:40:53;3.00;99.90
28863;DHT22;15994;51.796;13.006;2023-03-03T19:43:45;3.00;99.90
28863;DHT22;15994;51.796;13.006;2023-03-03T19:46:35;3.00;99.90
28863;DHT22;15994;51.796;13.006;2023-03-03T19:51:46;3.00;99.90
28863;DHT22;15994;51.796;13.006;2023-03-03T19:56:53;3.00;99.90
28863;DHT22;15994;51.796;13.006;2023-03-03T20:02:42;3.00;99.90
28863;DHT22;15994;51.796;13.006;2023-03-03T20:08:00;3.00;99.90
28863;DHT22;15994;51.796;13.006;2023-03-03T20:10:45;3.10;99.90
28863;DHT22;15994;51.796;13.006;2023-03-03T20:19:05;3.00;99.90
28863;DHT22;15994;51.796;13.006;2023-03-03T20:21:39;3.00;99.90
28863;DHT22;15994;51.796;13.006;2023-03-03T20:32:25;2.90;99.90
28863;DHT22;15994;51.796;13.006;2023-03-03T20:35:07;2.90;99.90
28863;DHT22;15994;51.796;13.006;2023-03-03T20:37:43;2.90;99.90
28863;DHT22;15994;51.796;13.006;2023-03-03T20:40:34;2.90;99.90
28863;DHT22;15994;51.796;13.006;2023-03-03T20:43:28;3.00;99.90
28863;DHT22;15994;51.796;13.006;2023-03-03T20:46:07;2.90;99.90
28863;DHT22;15994;51.796;13.006;2023-03-03T20:49:07;2.80;99.90
28863;DHT22;15994;51.796;13.006;2023-03-03T21:00:00;2.70;99.90
28863;DHT22;15994;51.796;13.006;2023-03-03T21:02:48;2.70;99.90
28863;DHT22;15994;51.796;13.006;2023-03-03T21:05:19;2.60;99.90
28863;DHT22;15994;51.796;13.006;2023-03-03T21:10:20;2.70;99.90
28863;DHT22;15994;51.796;13.006;2023-03-03T21:12:49;2.70;99.90
28863;DHT22;15994;51.796;13.006;2023-03-03T21:15:27;2.70;99.90
28863;DHT22;15994;51.796;13.006;2023-03-03T21:17:55;2.70;99.90
28863;DHT22;15994;51.796;13.006;2023-03-03T21:20:27;2.70;99.90
28863;DHT22;15994;51.796;13.006;2023-03-03T21:23:02;2.70;99.90
28863;DHT22;15994;51.796;13.006;2023-03-03T21:25:42;2.70;99.90